sensor_id;sensor_type;location;lat;lon;timestamp;P1;durP1;ratioP1;P2;durP2;ratioP2
9536;SDS011;4807;48.024;11.726;2023-07-09T00:02:04;6.93;;;4.73;;
9536;SDS011;4807;48.024;11.726;2023-07-09T00:05:13;8.63;;;4.63;;
9536;SDS011;4807;48.024;11.726;2023-07-09T00:08:25;9.50;;;4.33;;
9536;SDS011;4807;48.024;11.726;2023-07-09T00:11:36;8.47;;;4.13;;
9536;SDS011;4807;48.024;11.726;2023-07-09T00:14:47;8.30;;;4.23;;
9536;SDS011;4807;48.024;11.726;2023-07-09T00:17:56;4.53;;;3.93;;
9536;SDS011;4807;48.024;11.726;2023-07-09T00:21:07;7.40;;;4.10;;
9536;SDS011;4807;48.024;11.726;2023-07-09T00:24:16;6.27;;;3.83;;
9536;SDS011;4807;48.024;11.726;2023-07-09T00:27:25;5.03;;;3.80;;
9536;SDS011;4807;48.024;11.726;2023-07-09T00:30:38;4.37;;;3.50;;
9536;SDS011;4807;48.024;11.726;2023-07-09T00:33:48;4.47;;;3.80;;
9536;SDS011;4807;48.024;11.726;2023-07-09T00:36:57;3.90;;;3.50;;
9536;SDS011;4807;48.024;11.726;2023-07-09T00:40:09;5.03;;;4.00;;
9536;SDS011;4807;48.024;11.726;2023-07-09T00:43:23;7.93;;;4.17;;
9536;SDS011;4807;48.024;11.726;2023-07-09T00:50:27;5.83;;;3.57;;
9536;SDS011;4807;48.024;11.726;2023-07-09T00:53:41;7.90;;;3.90;;
9536;SDS011;4807;48.024;11.726;2023-07-09T00:56:53;8.47;;;3.73;;
9536;SDS011;4807;48.024;11.726;2023-07-09T01:00:05;5.80;;;4.00;;
9536;SDS011;4807;48.024;11.726;2023-07-09T01:03:20;5.50;;;3.50;;
9536;SDS011;4807;48.024;11.726;2023-07-09T01:06:35;3.80;;;3.17;;
9536;SDS011;4807;48.024;11.726;2023-07-09T01:09:47;5.67;;;3.63;;
9536;SDS011;4807;48.024;11.726;2023-07-09T01:12:55;5.63;;;3.50;;
9536;SDS011;4807;48.024;11.726;2023-07-09T01:16:05;5.40;;;4.00;;
9536;SDS011;4807;48.024;11.726;2023-07-09T01:19:17;3.80;;;3.40;;
9536;SDS011;4807;48.024;11.726;2023-07-09T01:22:32;5.13;;;3.13;;
9536;SDS011;4807;48.024;11.726;2023-07-09T01:25:45;4.30;;;3.50;;
9536;SDS011;4807;48.024;11.726;2023-07-09T01:28:59;7.50;;;3.70;;
9536;SDS011;4807;48.024;11.726;2023-07-09T01:32:08;5.53;;;3.63;;
9536;SDS011;4807;48.024;11.726;2023-07-09T01:35:18;3.73;;;3.27;;
9536;SDS011;4807;48.024;11.726;2023-07-09T01:38:30;4.57;;;3.33;;
9536;SDS011;4807;48.024;11.726;2023-07-09T01:41:38;4.10;;;3.30;;
9536;SDS011;4807;48.024;11.726;2023-07-09T01:44:47;3.40;;;3.10;;
9536;SDS011;4807;48.024;11.726;2023-07-09T01:47:57;4.33;;;3.63;;
9536;SDS011;4807;48.024;11.726;2023-07-09T01:51:06;3.87;;;3.30;;
9536;SDS011;4807;48.024;11.726;2023-07-09T01:54:18;5.53;;;3.63;;
9536;SDS011;4807;48.024;11.726;2023-07-09T01:57:27;7.00;;;4.07;;
9536;SDS011;4807;48.024;11.726;2023-07-09T02:00:39;4.87;;;3.37;;
9536;SDS011;4807;48.024;11.726;2023-07-09T02:03:49;6.43;;;3.40;;
9536;SDS011;4807;48.024;11.726;2023-07-09T02:06:59;4.23;;;3.70;;
9536;SDS011;4807;48.024;11.726;2023-07-09T02:10:10;7.23;;;4.30;;
9536;SDS011;4807;48.024;11.726;2023-07-09T02:13:19;8.20;;;4.83;;
9536;SDS011;4807;48.024;11.726;2023-07-09T02:16:28;9.27;;;5.30;;
9536;SDS011;4807;48.024;11.726;2023-07-09T02:19:37;9.07;;;5.23;;
9536;SDS011;4807;48.024;11.726;2023-07-09T02:22:46;9.80;;;5.73;;
9536;SDS011;4807;48.024;11.726;2023-07-09T02:25:58;7.03;;;4.93;;
9536;SDS011;4807;48.024;11.726;2023-07-09T02:29:08;5.90;;;4.20;;
9536;SDS011;4807;48.024;11.726;2023-07-09T02:32:18;7.27;;;4.20;;
9536;SDS011;4807;48.024;11.726;2023-07-09T02:35:29;5.80;;;3.90;;
9536;SDS011;4807;48.024;11.726;2023-07-09T02:38:39;7.07;;;3.87;;
9536;SDS011;4807;48.024;11.726;2023-07-09T02:41:50;5.37;;;4.10;;
9536;SDS011;4807;48.024;11.726;2023-07-09T02:44:58;3.80;;;3.40;;
9536;SDS011;4807;48.024;11.726;2023-07-09T02:48:09;6.87;;;3.80;;
9536;SDS011;4807;48.024;11.726;2023-07-09T02:51:19;5.90;;;3.97;;
9536;SDS011;4807;48.024;11.726;2023-07-09T02:54:28;4.80;;;3.27;;
9536;SDS011;4807;48.024;11.726;2023-07-09T02:57:38;6.40;;;3.90;;
9536;SDS011;4807;48.024;11.726;2023-07-09T03:00:48;5.13;;;3.60;;
9536;SDS011;4807;48.024;11.726;2023-07-09T03:03:59;4.00;;;3.50;;
9536;SDS011;4807;48.024;11.726;2023-07-09T03:07:10;5.93;;;4.07;;
9536;SDS011;4807;48.024;11.726;2023-07-09T03:10:18;6.07;;;3.73;;
9536;SDS011;4807;48.024;11.726;2023-07-09T03:13:28;5.67;;;3.60;;
9536;SDS011;4807;48.024;11.726;2023-07-09T03:16:37;5.43;;;3.43;;
9536;SDS011;4807;48.024;11.726;2023-07-09T03:19:46;3.70;;;2.70;;
9536;SDS011;4807;48.024;11.726;2023-07-09T03:22:54;3.90;;;3.00;;
9536;SDS011;4807;48.024;11.726;2023-07-09T03:26:03;4.30;;;3.37;;
9536;SDS011;4807;48.024;11.726;2023-07-09T03:29:14;4.13;;;3.63;;
9536;SDS011;4807;48.024;11.726;2023-07-09T03:32:22;4.70;;;3.37;;
9536;SDS011;4807;48.024;11.726;2023-07-09T03:35:31;4.03;;;3.37;;
9536;SDS011;4807;48.024;11.726;2023-07-09T03:38:41;4.67;;;3.50;;
9536;SDS011;4807;48.024;11.726;2023-07-09T03:41:49;3.30;;;2.93;;
9536;SDS011;4807;48.024;11.726;2023-07-09T03:44:59;4.97;;;3.43;;
9536;SDS011;4807;48.024;11.726;2023-07-09T03:48:08;4.33;;;2.83;;
9536;SDS011;4807;48.024;11.726;2023-07-09T03:51:16;5.13;;;3.30;;
9536;SDS011;4807;48.024;11.726;2023-07-09T03:54:25;3.77;;;2.90;;
9536;SDS011;4807;48.024;11.726;2023-07-09T03:57:34;3.40;;;2.67;;
9536;SDS011;4807;48.024;11.726;2023-07-09T04:00:44;4.60;;;3.23;;
9536;SDS011;4807;48.024;11.726;2023-07-09T04:03:52;5.90;;;3.37;;
9536;SDS011;4807;48.024;11.726;2023-07-09T04:07:01;4.20;;;3.03;;
9536;SDS011;4807;48.024;11.726;2023-07-09T04:10:10;5.43;;;3.27;;
9536;SDS011;4807;48.024;11.726;2023-07-09T04:13:19;5.00;;;3.00;;
9536;SDS011;4807;48.024;11.726;2023-07-09T04:16:28;3.17;;;2.70;;
9536;SDS011;4807;48.024;11.726;2023-07-09T04:19:37;3.67;;;2.50;;
9536;SDS011;4807;48.024;11.726;2023-07-09T04:22:46;6.50;;;2.57;;
9536;SDS011;4807;48.024;11.726;2023-07-09T04:25:54;7.27;;;3.20;;
9536;SDS011;4807;48.024;11.726;2023-07-09T04:29:04;3.37;;;2.57;;
9536;SDS011;4807;48.024;11.726;2023-07-09T04:32:14;2.63;;;2.27;;
9536;SDS011;4807;48.024;11.726;2023-07-09T04:35:23;3.17;;;2.83;;
9536;SDS011;4807;48.024;11.726;2023-07-09T04:38:32;3.20;;;2.37;;
9536;SDS011;4807;48.024;11.726;2023-07-09T04:41:41;3.13;;;2.70;;
9536;SDS011;4807;48.024;11.726;2023-07-09T04:44:50;3.67;;;2.60;;
9536;SDS011;4807;48.024;11.726;2023-07-09T04:48:00;5.03;;;2.90;;
9536;SDS011;4807;48.024;11.726;2023-07-09T04:51:08;3.03;;;2.57;;
9536;SDS011;4807;48.024;11.726;2023-07-09T04:54:17;4.37;;;2.80;;
9536;SDS011;4807;48.024;11.726;2023-07-09T04:57:26;3.73;;;2.60;;
9536;SDS011;4807;48.024;11.726;2023-07-09T05:00:34;3.37;;;2.43;;
9536;SDS011;4807;48.024;11.726;2023-07-09T05:03:44;3.53;;;2.40;;
9536;SDS011;4807;48.024;11.726;2023-07-09T05:06:53;5.30;;;3.07;;
9536;SDS011;4807;48.024;11.726;2023-07-09T05:10:01;7.70;;;3.40;;
9536;SDS011;4807;48.024;11.726;2023-07-09T05:13:10;8.60;;;3.17;;
9536;SDS011;4807;48.024;11.726;2023-07-09T05:16:19;6.03;;;2.93;;
9536;SDS011;4807;48.024;11.726;2023-07-09T05:19:29;6.00;;;2.97;;
9536;SDS011;4807;48.024;11.726;2023-07-09T05:22:38;5.50;;;3.30;;
9536;SDS011;4807;48.024;11.726;2023-07-09T05:25:47;8.10;;;3.47;;
9536;SDS011;4807;48.024;11.726;2023-07-09T05:28:55;6.53;;;3.23;;
9536;SDS011;4807;48.024;11.726;2023-07-09T05:32:05;6.90;;;2.97;;
9536;SDS011;4807;48.024;11.726;2023-07-09T05:35:15;9.33;;;3.13;;
9536;SDS011;4807;48.024;11.726;2023-07-09T05:38:24;6.97;;;3.40;;
9536;SDS011;4807;48.024;11.726;2023-07-09T05:41:32;7.97;;;3.20;;
9536;SDS011;4807;48.024;11.726;2023-07-09T05:44:41;3.90;;;2.87;;
9536;SDS011;4807;48.024;11.726;2023-07-09T05:47:50;6.73;;;2.27;;
9536;SDS011;4807;48.024;11.726;2023-07-09T05:51:00;4.60;;;2.63;;
9536;SDS011;4807;48.024;11.726;2023-07-09T05:54:09;4.03;;;2.47;;
9536;SDS011;4807;48.024;11.726;2023-07-09T05:57:18;4.87;;;2.70;;
9536;SDS011;4807;48.024;11.726;2023-07-09T06:00:27;3.77;;;2.57;;
9536;SDS011;4807;48.024;11.726;2023-07-09T06:03:36;3.30;;;2.40;;
9536;SDS011;4807;48.024;11.726;2023-07-09T06:06:47;2.57;;;2.20;;
9536;SDS011;4807;48.024;11.726;2023-07-09T06:09:55;2.90;;;2.70;;
9536;SDS011;4807;48.024;11.726;2023-07-09T06:13:04;2.80;;;2.27;;
9536;SDS011;4807;48.024;11.726;2023-07-09T06:16:13;4.13;;;2.30;;
9536;SDS011;4807;48.024;11.726;2023-07-09T06:19:22;3.87;;;2.60;;
9536;SDS011;4807;48.024;11.726;2023-07-09T06:22:32;4.23;;;1.97;;
9536;SDS011;4807;48.024;11.726;2023-07-09T06:25:40;3.53;;;2.37;;
9536;SDS011;4807;48.024;11.726;2023-07-09T06:28:53;2.60;;;2.00;;
9536;SDS011;4807;48.024;11.726;2023-07-09T06:32:01;3.33;;;1.90;;
9536;SDS011;4807;48.024;11.726;2023-07-09T06:35:10;6.80;;;2.20;;
9536;SDS011;4807;48.024;11.726;2023-07-09T06:38:21;3.70;;;2.00;;
9536;SDS011;4807;48.024;11.726;2023-07-09T06:41:29;7.33;;;2.40;;
9536;SDS011;4807;48.024;11.726;2023-07-09T06:44:47;4.13;;;1.77;;
9536;SDS011;4807;48.024;11.726;2023-07-09T06:47:55;3.67;;;1.80;;
9536;SDS011;4807;48.024;11.726;2023-07-09T06:51:04;4.17;;;2.20;;
9536;SDS011;4807;48.024;11.726;2023-07-09T06:54:14;2.10;;;1.90;;
9536;SDS011;4807;48.024;11.726;2023-07-09T06:57:23;4.13;;;2.00;;
9536;SDS011;4807;48.024;11.726;2023-07-09T07:00:33;3.63;;;2.10;;
9536;SDS011;4807;48.024;11.726;2023-07-09T07:03:41;5.83;;;1.97;;
9536;SDS011;4807;48.024;11.726;2023-07-09T07:06:50;3.63;;;2.00;;
9536;SDS011;4807;48.024;11.726;2023-07-09T07:10:00;3.23;;;1.87;;
9536;SDS011;4807;48.024;11.726;2023-07-09T07:13:10;2.90;;;1.90;;
9536;SDS011;4807;48.024;11.726;2023-07-09T07:16:18;2.93;;;1.80;;
9536;SDS011;4807;48.024;11.726;2023-07-09T07:19:27;3.67;;;2.60;;
9536;SDS011;4807;48.024;11.726;2023-07-09T07:22:36;3.20;;;2.33;;
9536;SDS011;4807;48.024;11.726;2023-07-09T07:25:46;2.80;;;2.20;;
9536;SDS011;4807;48.024;11.726;2023-07-09T07:28:55;3.20;;;2.17;;
9536;SDS011;4807;48.024;11.726;2023-07-09T07:32:04;2.77;;;2.10;;
9536;SDS011;4807;48.024;11.726;2023-07-09T07:35:13;4.00;;;2.13;;
9536;SDS011;4807;48.024;11.726;2023-07-09T07:38:23;3.30;;;2.40;;
9536;SDS011;4807;48.024;11.726;2023-07-09T07:41:33;2.33;;;2.13;;
9536;SDS011;4807;48.024;11.726;2023-07-09T07:44:42;3.83;;;2.03;;
9536;SDS011;4807;48.024;11.726;2023-07-09T07:47:50;4.37;;;2.80;;
9536;SDS011;4807;48.024;11.726;2023-07-09T07:50:59;3.90;;;2.57;;
9536;SDS011;4807;48.024;11.726;2023-07-09T07:54:09;6.10;;;2.50;;
9536;SDS011;4807;48.024;11.726;2023-07-09T07:57:19;3.07;;;2.43;;
9536;SDS011;4807;48.024;11.726;2023-07-09T08:00:31;2.90;;;2.13;;
9536;SDS011;4807;48.024;11.726;2023-07-09T08:03:40;3.93;;;2.63;;
9536;SDS011;4807;48.024;11.726;2023-07-09T08:06:49;3.60;;;2.30;;
9536;SDS011;4807;48.024;11.726;2023-07-09T08:09:58;7.17;;;2.23;;
9536;SDS011;4807;48.024;11.726;2023-07-09T08:13:08;6.13;;;2.20;;
9536;SDS011;4807;48.024;11.726;2023-07-09T08:16:17;3.10;;;2.37;;
9536;SDS011;4807;48.024;11.726;2023-07-09T08:19:26;3.87;;;2.30;;
9536;SDS011;4807;48.024;11.726;2023-07-09T08:22:35;3.17;;;2.63;;
9536;SDS011;4807;48.024;11.726;2023-07-09T08:25:51;3.50;;;2.57;;
9536;SDS011;4807;48.024;11.726;2023-07-09T08:29:02;5.00;;;2.60;;
9536;SDS011;4807;48.024;11.726;2023-07-09T08:32:11;5.80;;;2.83;;
9536;SDS011;4807;48.024;11.726;2023-07-09T08:35:20;2.83;;;2.27;;
9536;SDS011;4807;48.024;11.726;2023-07-09T08:38:42;6.03;;;2.40;;
9536;SDS011;4807;48.024;11.726;2023-07-09T08:41:52;2.27;;;2.07;;
9536;SDS011;4807;48.024;11.726;2023-07-09T08:45:17;4.73;;;2.40;;
9536;SDS011;4807;48.024;11.726;2023-07-09T08:48:37;3.63;;;2.40;;
9536;SDS011;4807;48.024;11.726;2023-07-09T08:51:49;4.13;;;2.20;;
9536;SDS011;4807;48.024;11.726;2023-07-09T08:55:05;4.57;;;2.23;;
9536;SDS011;4807;48.024;11.726;2023-07-09T08:58:17;3.60;;;2.53;;
9536;SDS011;4807;48.024;11.726;2023-07-09T09:01:34;5.33;;;2.03;;
9536;SDS011;4807;48.024;11.726;2023-07-09T09:04:46;3.47;;;2.00;;
9536;SDS011;4807;48.024;11.726;2023-07-09T09:07:57;2.80;;;1.90;;
9536;SDS011;4807;48.024;11.726;2023-07-09T09:11:16;4.90;;;2.33;;
9536;SDS011;4807;48.024;11.726;2023-07-09T09:14:30;2.63;;;2.20;;
9536;SDS011;4807;48.024;11.726;2023-07-09T09:17:42;3.60;;;2.20;;
9536;SDS011;4807;48.024;11.726;2023-07-09T09:20:53;3.90;;;2.50;;
9536;SDS011;4807;48.024;11.726;2023-07-09T09:24:10;4.90;;;2.80;;
9536;SDS011;4807;48.024;11.726;2023-07-09T09:27:22;4.27;;;2.70;;
9536;SDS011;4807;48.024;11.726;2023-07-09T09:30:31;3.83;;;2.10;;
9536;SDS011;4807;48.024;11.726;2023-07-09T09:33:42;2.30;;;2.10;;
9536;SDS011;4807;48.024;11.726;2023-07-09T09:36:52;3.53;;;2.63;;
9536;SDS011;4807;48.024;11.726;2023-07-09T09:40:02;3.67;;;2.60;;
9536;SDS011;4807;48.024;11.726;2023-07-09T09:43:23;5.10;;;2.20;;
9536;SDS011;4807;48.024;11.726;2023-07-09T09:46:38;2.87;;;2.10;;
9536;SDS011;4807;48.024;11.726;2023-07-09T09:49:51;4.87;;;2.23;;
9536;SDS011;4807;48.024;11.726;2023-07-09T09:53:00;3.50;;;2.53;;
9536;SDS011;4807;48.024;11.726;2023-07-09T09:56:11;5.00;;;2.40;;
9536;SDS011;4807;48.024;11.726;2023-07-09T09:59:25;4.77;;;2.30;;
9536;SDS011;4807;48.024;11.726;2023-07-09T10:02:38;3.83;;;2.37;;
9536;SDS011;4807;48.024;11.726;2023-07-09T10:05:50;3.07;;;2.13;;
9536;SDS011;4807;48.024;11.726;2023-07-09T10:09:05;4.30;;;2.10;;
9536;SDS011;4807;48.024;11.726;2023-07-09T10:12:32;3.17;;;2.33;;
9536;SDS011;4807;48.024;11.726;2023-07-09T10:15:50;3.73;;;2.53;;
9536;SDS011;4807;48.024;11.726;2023-07-09T10:19:14;2.80;;;2.40;;
9536;SDS011;4807;48.024;11.726;2023-07-09T10:22:37;4.47;;;2.40;;
9536;SDS011;4807;48.024;11.726;2023-07-09T10:25:48;3.03;;;2.17;;
9536;SDS011;4807;48.024;11.726;2023-07-09T10:29:12;5.03;;;2.70;;
9536;SDS011;4807;48.024;11.726;2023-07-09T10:32:37;4.00;;;2.20;;
9536;SDS011;4807;48.024;11.726;2023-07-09T10:35:54;2.43;;;2.20;;
9536;SDS011;4807;48.024;11.726;2023-07-09T10:39:17;4.00;;;2.30;;
9536;SDS011;4807;48.024;11.726;2023-07-09T10:42:33;3.20;;;2.47;;
9536;SDS011;4807;48.024;11.726;2023-07-09T10:45:47;4.67;;;2.10;;
9536;SDS011;4807;48.024;11.726;2023-07-09T10:49:00;5.83;;;2.10;;
9536;SDS011;4807;48.024;11.726;2023-07-09T10:52:17;3.07;;;2.13;;
9536;SDS011;4807;48.024;11.726;2023-07-09T10:55:37;3.20;;;2.30;;
9536;SDS011;4807;48.024;11.726;2023-07-09T10:58:52;3.87;;;2.27;;
9536;SDS011;4807;48.024;11.726;2023-07-09T11:02:23;3.67;;;2.33;;
9536;SDS011;4807;48.024;11.726;2023-07-09T11:05:34;4.03;;;2.13;;
9536;SDS011;4807;48.024;11.726;2023-07-09T11:08:43;4.00;;;2.70;;
9536;SDS011;4807;48.024;11.726;2023-07-09T11:11:57;2.40;;;2.17;;
9536;SDS011;4807;48.024;11.726;2023-07-09T11:15:11;3.53;;;2.43;;
9536;SDS011;4807;48.024;11.726;2023-07-09T11:18:24;3.77;;;2.13;;
9536;SDS011;4807;48.024;11.726;2023-07-09T11:21:40;2.90;;;2.40;;
9536;SDS011;4807;48.024;11.726;2023-07-09T11:25:04;2.63;;;2.30;;
9536;SDS011;4807;48.024;11.726;2023-07-09T11:28:17;2.93;;;2.33;;
9536;SDS011;4807;48.024;11.726;2023-07-09T11:31:43;2.63;;;2.03;;
9536;SDS011;4807;48.024;11.726;2023-07-09T11:35:05;4.17;;;2.57;;
9536;SDS011;4807;48.024;11.726;2023-07-09T11:38:18;4.57;;;3.30;;
9536;SDS011;4807;48.024;11.726;2023-07-09T11:41:34;3.70;;;2.40;;
9536;SDS011;4807;48.024;11.726;2023-07-09T11:44:49;4.13;;;2.40;;
9536;SDS011;4807;48.024;11.726;2023-07-09T11:48:02;4.33;;;2.43;;
9536;SDS011;4807;48.024;11.726;2023-07-09T11:51:38;2.80;;;2.43;;
9536;SDS011;4807;48.024;11.726;2023-07-09T11:54:51;3.03;;;2.03;;
9536;SDS011;4807;48.024;11.726;2023-07-09T11:58:01;4.13;;;2.57;;
9536;SDS011;4807;48.024;11.726;2023-07-09T12:01:13;3.93;;;2.70;;
9536;SDS011;4807;48.024;11.726;2023-07-09T12:04:25;3.33;;;2.27;;
9536;SDS011;4807;48.024;11.726;2023-07-09T12:07:38;4.47;;;2.57;;
9536;SDS011;4807;48.024;11.726;2023-07-09T12:10:48;3.53;;;2.37;;
9536;SDS011;4807;48.024;11.726;2023-07-09T12:14:00;3.73;;;2.10;;
9536;SDS011;4807;48.024;11.726;2023-07-09T12:17:13;2.60;;;2.03;;
9536;SDS011;4807;48.024;11.726;2023-07-09T12:20:21;2.73;;;1.90;;
9536;SDS011;4807;48.024;11.726;2023-07-09T12:23:31;4.37;;;2.50;;
9536;SDS011;4807;48.024;11.726;2023-07-09T12:26:42;2.77;;;2.10;;
9536;SDS011;4807;48.024;11.726;2023-07-09T12:29:55;3.23;;;2.37;;
9536;SDS011;4807;48.024;11.726;2023-07-09T12:33:07;3.30;;;1.67;;
9536;SDS011;4807;48.024;11.726;2023-07-09T12:36:16;4.23;;;2.10;;
9536;SDS011;4807;48.024;11.726;2023-07-09T12:39:27;6.27;;;2.33;;
9536;SDS011;4807;48.024;11.726;2023-07-09T12:42:39;4.73;;;2.67;;
9536;SDS011;4807;48.024;11.726;2023-07-09T12:45:49;3.40;;;2.20;;
9536;SDS011;4807;48.024;11.726;2023-07-09T12:48:59;2.60;;;2.33;;
9536;SDS011;4807;48.024;11.726;2023-07-09T12:52:12;5.80;;;2.63;;
9536;SDS011;4807;48.024;11.726;2023-07-09T12:55:25;4.93;;;2.50;;
9536;SDS011;4807;48.024;11.726;2023-07-09T12:58:37;3.50;;;1.97;;
9536;SDS011;4807;48.024;11.726;2023-07-09T13:01:49;6.13;;;2.30;;
9536;SDS011;4807;48.024;11.726;2023-07-09T13:05:04;3.43;;;2.13;;
9536;SDS011;4807;48.024;11.726;2023-07-09T13:08:24;2.80;;;2.40;;
9536;SDS011;4807;48.024;11.726;2023-07-09T13:11:34;2.93;;;2.10;;
9536;SDS011;4807;48.024;11.726;2023-07-09T13:14:46;4.00;;;2.33;;
9536;SDS011;4807;48.024;11.726;2023-07-09T13:18:04;6.53;;;2.60;;
9536;SDS011;4807;48.024;11.726;2023-07-09T13:21:17;5.83;;;2.27;;
9536;SDS011;4807;48.024;11.726;2023-07-09T13:24:28;5.37;;;2.40;;
9536;SDS011;4807;48.024;11.726;2023-07-09T13:27:37;2.83;;;2.20;;
9536;SDS011;4807;48.024;11.726;2023-07-09T13:30:46;3.47;;;2.30;;
9536;SDS011;4807;48.024;11.726;2023-07-09T13:33:56;8.37;;;2.57;;
9536;SDS011;4807;48.024;11.726;2023-07-09T13:37:11;2.77;;;2.07;;
9536;SDS011;4807;48.024;11.726;2023-07-09T13:40:22;4.83;;;2.20;;
9536;SDS011;4807;48.024;11.726;2023-07-09T13:43:32;2.57;;;1.93;;
9536;SDS011;4807;48.024;11.726;2023-07-09T13:46:42;4.23;;;2.30;;
9536;SDS011;4807;48.024;11.726;2023-07-09T13:49:51;5.93;;;2.00;;
9536;SDS011;4807;48.024;11.726;2023-07-09T13:53:01;3.40;;;2.40;;
9536;SDS011;4807;48.024;11.726;2023-07-09T13:56:10;2.87;;;2.07;;
9536;SDS011;4807;48.024;11.726;2023-07-09T13:59:20;5.23;;;2.53;;
9536;SDS011;4807;48.024;11.726;2023-07-09T14:02:31;4.93;;;2.40;;
9536;SDS011;4807;48.024;11.726;2023-07-09T14:05:40;2.23;;;2.03;;
9536;SDS011;4807;48.024;11.726;2023-07-09T14:08:51;6.60;;;2.03;;
9536;SDS011;4807;48.024;11.726;2023-07-09T14:11:59;3.93;;;2.20;;
9536;SDS011;4807;48.024;11.726;2023-07-09T14:15:11;6.17;;;2.40;;
9536;SDS011;4807;48.024;11.726;2023-07-09T14:18:22;5.10;;;2.53;;
9536;SDS011;4807;48.024;11.726;2023-07-09T14:21:31;2.83;;;2.17;;
9536;SDS011;4807;48.024;11.726;2023-07-09T14:24:43;3.27;;;2.30;;
9536;SDS011;4807;48.024;11.726;2023-07-09T14:27:52;2.17;;;2.07;;
9536;SDS011;4807;48.024;11.726;2023-07-09T14:31:01;3.50;;;2.33;;
9536;SDS011;4807;48.024;11.726;2023-07-09T14:34:19;3.03;;;2.50;;
9536;SDS011;4807;48.024;11.726;2023-07-09T14:37:29;3.30;;;2.37;;
9536;SDS011;4807;48.024;11.726;2023-07-09T14:40:40;2.33;;;2.10;;
9536;SDS011;4807;48.024;11.726;2023-07-09T14:43:48;4.13;;;2.27;;
9536;SDS011;4807;48.024;11.726;2023-07-09T14:46:58;2.63;;;2.30;;
9536;SDS011;4807;48.024;11.726;2023-07-09T14:50:08;3.50;;;2.17;;
9536;SDS011;4807;48.024;11.726;2023-07-09T14:53:20;3.97;;;2.73;;
9536;SDS011;4807;48.024;11.726;2023-07-09T14:56:34;4.43;;;2.43;;
9536;SDS011;4807;48.024;11.726;2023-07-09T14:59:42;3.67;;;2.27;;
9536;SDS011;4807;48.024;11.726;2023-07-09T15:02:51;5.33;;;2.67;;
9536;SDS011;4807;48.024;11.726;2023-07-09T15:06:01;3.97;;;2.77;;
9536;SDS011;4807;48.024;11.726;2023-07-09T15:09:10;4.20;;;2.30;;
9536;SDS011;4807;48.024;11.726;2023-07-09T15:12:22;2.97;;;2.13;;
9536;SDS011;4807;48.024;11.726;2023-07-09T15:15:35;3.23;;;2.37;;
9536;SDS011;4807;48.024;11.726;2023-07-09T15:18:45;2.77;;;2.40;;
9536;SDS011;4807;48.024;11.726;2023-07-09T15:21:54;4.47;;;2.10;;
9536;SDS011;4807;48.024;11.726;2023-07-09T15:25:03;3.77;;;2.10;;
9536;SDS011;4807;48.024;11.726;2023-07-09T15:28:17;4.47;;;2.37;;
9536;SDS011;4807;48.024;11.726;2023-07-09T15:31:26;2.77;;;1.90;;
9536;SDS011;4807;48.024;11.726;2023-07-09T15:34:35;3.97;;;2.30;;
9536;SDS011;4807;48.024;11.726;2023-07-09T15:37:44;3.77;;;2.13;;
9536;SDS011;4807;48.024;11.726;2023-07-09T15:40:54;5.23;;;1.97;;
9536;SDS011;4807;48.024;11.726;2023-07-09T15:44:07;3.67;;;2.10;;
9536;SDS011;4807;48.024;11.726;2023-07-09T15:47:26;4.10;;;2.23;;
9536;SDS011;4807;48.024;11.726;2023-07-09T15:50:35;3.60;;;2.23;;
9536;SDS011;4807;48.024;11.726;2023-07-09T15:53:44;2.77;;;2.00;;
9536;SDS011;4807;48.024;11.726;2023-07-09T15:56:53;7.07;;;2.53;;
9536;SDS011;4807;48.024;11.726;2023-07-09T16:00:07;2.93;;;2.17;;
9536;SDS011;4807;48.024;11.726;2023-07-09T16:03:25;3.17;;;2.13;;
9536;SDS011;4807;48.024;11.726;2023-07-09T16:06:34;4.10;;;2.10;;
9536;SDS011;4807;48.024;11.726;2023-07-09T16:09:45;2.33;;;1.60;;
9536;SDS011;4807;48.024;11.726;2023-07-09T16:12:54;2.23;;;2.03;;
9536;SDS011;4807;48.024;11.726;2023-07-09T16:16:04;3.63;;;2.03;;
9536;SDS011;4807;48.024;11.726;2023-07-09T16:19:14;2.87;;;1.93;;
9536;SDS011;4807;48.024;11.726;2023-07-09T16:22:23;1.90;;;1.80;;
9536;SDS011;4807;48.024;11.726;2023-07-09T16:25:33;4.10;;;2.13;;
9536;SDS011;4807;48.024;11.726;2023-07-09T16:28:43;3.90;;;2.30;;
9536;SDS011;4807;48.024;11.726;2023-07-09T16:31:54;7.23;;;2.10;;
9536;SDS011;4807;48.024;11.726;2023-07-09T16:35:04;3.40;;;2.70;;
9536;SDS011;4807;48.024;11.726;2023-07-09T16:38:13;4.87;;;3.37;;
9536;SDS011;4807;48.024;11.726;2023-07-09T16:41:21;3.63;;;2.60;;
9536;SDS011;4807;48.024;11.726;2023-07-09T16:44:30;5.43;;;2.50;;
9536;SDS011;4807;48.024;11.726;2023-07-09T16:47:40;5.63;;;3.63;;
9536;SDS011;4807;48.024;11.726;2023-07-09T16:50:50;3.10;;;2.20;;
9536;SDS011;4807;48.024;11.726;2023-07-09T16:54:00;5.87;;;2.50;;
9536;SDS011;4807;48.024;11.726;2023-07-09T16:57:12;4.30;;;2.57;;
9536;SDS011;4807;48.024;11.726;2023-07-09T17:00:24;2.90;;;2.10;;
9536;SDS011;4807;48.024;11.726;2023-07-09T17:03:36;4.15;;;2.80;;
9536;SDS011;4807;48.024;11.726;2023-07-09T17:06:45;3.28;;;2.15;;
9536;SDS011;4807;48.024;11.726;2023-07-09T17:09:54;4.10;;;1.92;;
9536;SDS011;4807;48.024;11.726;2023-07-09T17:13:04;3.45;;;1.83;;
9536;SDS011;4807;48.024;11.726;2023-07-09T17:16:13;3.05;;;1.95;;
9536;SDS011;4807;48.024;11.726;2023-07-09T17:19:24;3.38;;;1.95;;
9536;SDS011;4807;48.024;11.726;2023-07-09T17:22:33;1.92;;;1.83;;
9536;SDS011;4807;48.024;11.726;2023-07-09T17:25:42;2.50;;;1.75;;
9536;SDS011;4807;48.024;11.726;2023-07-09T17:28:51;2.92;;;1.75;;
9536;SDS011;4807;48.024;11.726;2023-07-09T17:32:00;4.30;;;1.92;;
9536;SDS011;4807;48.024;11.726;2023-07-09T17:35:10;3.67;;;2.08;;
9536;SDS011;4807;48.024;11.726;2023-07-09T17:38:19;2.50;;;1.92;;
9536;SDS011;4807;48.024;11.726;2023-07-09T17:41:30;4.28;;;2.10;;
9536;SDS011;4807;48.024;11.726;2023-07-09T17:44:39;2.55;;;1.90;;
9536;SDS011;4807;48.024;11.726;2023-07-09T17:47:48;2.65;;;1.90;;
9536;SDS011;4807;48.024;11.726;2023-07-09T17:50:59;4.00;;;2.33;;
9536;SDS011;4807;48.024;11.726;2023-07-09T17:54:13;3.42;;;2.15;;
9536;SDS011;4807;48.024;11.726;2023-07-09T17:57:24;3.00;;;2.07;;
9536;SDS011;4807;48.024;11.726;2023-07-09T18:00:34;2.43;;;2.23;;
9536;SDS011;4807;48.024;11.726;2023-07-09T18:03:42;5.10;;;2.73;;
9536;SDS011;4807;48.024;11.726;2023-07-09T18:06:53;4.60;;;2.60;;
9536;SDS011;4807;48.024;11.726;2023-07-09T18:10:04;3.77;;;2.27;;
9536;SDS011;4807;48.024;11.726;2023-07-09T18:13:17;3.67;;;2.20;;
9536;SDS011;4807;48.024;11.726;2023-07-09T18:16:28;3.13;;;1.67;;
9536;SDS011;4807;48.024;11.726;2023-07-09T18:19:38;3.67;;;1.93;;
9536;SDS011;4807;48.024;11.726;2023-07-09T18:22:48;4.83;;;2.10;;
9536;SDS011;4807;48.024;11.726;2023-07-09T18:25:58;3.70;;;2.43;;
9536;SDS011;4807;48.024;11.726;2023-07-09T18:29:08;2.27;;;1.90;;
9536;SDS011;4807;48.024;11.726;2023-07-09T18:32:29;2.80;;;1.57;;
9536;SDS011;4807;48.024;11.726;2023-07-09T18:35:40;3.00;;;1.90;;
9536;SDS011;4807;48.024;11.726;2023-07-09T18:38:51;3.37;;;2.10;;
9536;SDS011;4807;48.024;11.726;2023-07-09T18:42:00;3.93;;;2.10;;
9536;SDS011;4807;48.024;11.726;2023-07-09T18:45:13;2.97;;;1.87;;
9536;SDS011;4807;48.024;11.726;2023-07-09T18:48:23;3.47;;;2.10;;
9536;SDS011;4807;48.024;11.726;2023-07-09T18:51:35;3.67;;;2.10;;
9536;SDS011;4807;48.024;11.726;2023-07-09T18:54:49;5.53;;;3.10;;
9536;SDS011;4807;48.024;11.726;2023-07-09T18:58:00;10.13;;;3.40;;
9536;SDS011;4807;48.024;11.726;2023-07-09T19:01:14;6.90;;;3.00;;
9536;SDS011;4807;48.024;11.726;2023-07-09T19:04:28;7.20;;;3.87;;
9536;SDS011;4807;48.024;11.726;2023-07-09T19:07:38;5.80;;;3.10;;
9536;SDS011;4807;48.024;11.726;2023-07-09T19:10:49;7.80;;;3.03;;
9536;SDS011;4807;48.024;11.726;2023-07-09T19:13:58;4.20;;;2.80;;
9536;SDS011;4807;48.024;11.726;2023-07-09T19:17:09;4.27;;;2.30;;
9536;SDS011;4807;48.024;11.726;2023-07-09T19:20:22;3.90;;;2.53;;
9536;SDS011;4807;48.024;11.726;2023-07-09T19:23:32;5.37;;;2.20;;
9536;SDS011;4807;48.024;11.726;2023-07-09T19:26:43;7.53;;;2.90;;
9536;SDS011;4807;48.024;11.726;2023-07-09T19:29:52;4.23;;;2.60;;
9536;SDS011;4807;48.024;11.726;2023-07-09T19:33:01;9.07;;;3.63;;